createdAt,value
2022-10-29T00:00:57.385Z,31.10
2022-10-29T00:01:57.449Z,36.90
2022-10-29T00:02:57.416Z,32.80
2022-10-29T00:03:57.341Z,32.60
2022-10-29T00:04:57.333Z,41.40
2022-10-29T00:05:57.314Z,32.30
2022-10-29T00:06:57.331Z,34.60
2022-10-29T00:07:57.673Z,32.30
2022-10-29T00:08:57.291Z,38.00
2022-10-29T00:09:57.269Z,29.80
2022-10-29T00:10:57.263Z,34.10
2022-10-29T00:11:57.255Z,35.40
2022-10-29T00:12:57.236Z,36.20
2022-10-29T00:13:57.225Z,34.30
2022-10-29T00:14:57.215Z,37.20
2022-10-29T00:15:57.203Z,34.90
2022-10-29T00:16:57.314Z,34.80
2022-10-29T00:17:57.588Z,31.10
2022-10-29T00:18:57.167Z,34.30
2022-10-29T00:19:57.271Z,31.00
2022-10-29T00:20:57.152Z,27.70
2022-10-29T00:21:57.138Z,37.00
2022-10-29T00:22:57.590Z,35.80
2022-10-29T00:23:57.113Z,31.40
2022-10-29T00:24:57.103Z,40.60
2022-10-29T00:25:57.092Z,35.80
2022-10-29T00:26:57.080Z,35.30
2022-10-29T00:27:57.071Z,38.90
2022-10-29T00:28:57.060Z,37.20
2022-10-29T00:29:57.046Z,34.50
2022-10-29T00:30:57.039Z,39.10
2022-10-29T00:31:57.122Z,35.10
2022-10-29T00:32:57.192Z,38.20
2022-10-29T00:33:57.000Z,32.50
2022-10-29T00:34:56.992Z,34.90
2022-10-29T00:35:56.984Z,33.70
2022-10-29T00:36:56.970Z,37.50
2022-10-29T00:37:57.387Z,39.10
2022-10-29T00:38:56.985Z,34.80
2022-10-29T00:39:56.939Z,34.00
2022-10-29T00:40:56.924Z,32.30
2022-10-29T00:41:56.911Z,31.50
2022-10-29T00:42:56.902Z,38.40
2022-10-29T00:43:56.887Z,36.80
2022-10-29T00:44:56.882Z,40.20
2022-10-29T00:45:56.866Z,36.90
2022-10-29T00:46:56.857Z,38.10
2022-10-29T00:47:57.208Z,37.60
2022-10-29T00:48:56.836Z,34.70
2022-10-29T00:49:56.823Z,36.60
2022-10-29T00:50:56.814Z,37.30
2022-10-29T00:51:56.801Z,35.00
2022-10-29T00:52:56.793Z,33.40
2022-10-29T00:53:56.779Z,34.40
2022-10-29T00:54:56.793Z,33.30
2022-10-29T00:55:56.758Z,36.30
2022-10-29T00:56:56.748Z,35.00
2022-10-29T00:57:57.081Z,31.30
2022-10-29T00:58:56.728Z,30.30
2022-10-29T00:59:56.714Z,35.60
2022-10-29T01:00:56.706Z,35.20
2022-10-29T01:01:56.808Z,38.10
2022-10-29T01:02:57.144Z,33.10
2022-10-29T01:03:56.669Z,33.20
2022-10-29T01:04:56.657Z,38.70
2022-10-29T01:05:56.642Z,33.60
2022-10-29T01:06:56.632Z,34.50
2022-10-29T01:07:56.624Z,36.30
2022-10-29T01:08:56.616Z,35.60
2022-10-29T01:09:56.595Z,38.00
2022-10-29T01:10:56.618Z,40.50
2022-10-29T01:11:56.576Z,40.10
2022-10-29T01:12:56.970Z,37.80
2022-10-29T01:13:56.557Z,36.90
2022-10-29T01:14:56.554Z,37.10
2022-10-29T01:15:56.533Z,40.70
2022-10-29T01:16:56.538Z,40.90
2022-10-29T01:17:56.812Z,39.20
2022-10-29T01:18:56.592Z,35.30
2022-10-29T01:19:56.487Z,36.70
2022-10-29T01:20:56.477Z,41.70
2022-10-29T01:21:56.464Z,38.30
2022-10-29T01:22:56.462Z,37.10
2022-10-29T01:23:56.442Z,41.10
2022-10-29T01:24:56.434Z,48.10
2022-10-29T01:25:56.420Z,44.20
2022-10-29T01:26:56.432Z,43.80
2022-10-29T01:27:56.899Z,41.00
2022-10-29T01:28:56.389Z,41.40
2022-10-29T01:29:56.378Z,44.70
2022-10-29T01:30:56.366Z,40.40
2022-10-29T01:31:56.355Z,44.00
2022-10-29T01:32:56.781Z,36.70
2022-10-29T01:33:56.331Z,36.30
2022-10-29T01:34:56.328Z,40.60
2022-10-29T01:35:56.309Z,47.40
2022-10-29T01:36:56.304Z,40.20
2022-10-29T01:37:56.284Z,36.50
2022-10-29T01:38:56.280Z,35.70
2022-10-29T01:39:56.267Z,37.70
2022-10-29T01:40:56.266Z,36.10
2022-10-29T01:41:56.253Z,39.80
2022-10-29T01:42:56.637Z,42.00
2022-10-29T01:43:56.226Z,29.70
2022-10-29T01:44:56.220Z,38.70
2022-10-29T01:45:56.206Z,39.30
2022-10-29T01:46:56.193Z,34.70
2022-10-29T01:47:56.456Z,38.20
2022-10-29T01:48:56.168Z,40.80
2022-10-29T01:49:56.156Z,34.10
2022-10-29T01:50:56.149Z,33.10
2022-10-29T01:51:56.132Z,37.60
2022-10-29T01:52:56.124Z,40.90
2022-10-29T01:53:56.108Z,43.50
2022-10-29T01:54:56.104Z,41.60
2022-10-29T01:55:56.086Z,37.60
2022-10-29T01:56:56.078Z,39.90
2022-10-29T01:57:56.362Z,38.20
2022-10-29T01:58:56.074Z,48.30
2022-10-29T01:59:56.404Z,43.90
2022-10-29T02:00:56.085Z,39.00
2022-10-29T02:01:56.083Z,43.60
2022-10-29T02:02:56.403Z,43.00
2022-10-29T02:03:55.999Z,39.00
2022-10-29T02:04:55.987Z,39.60
2022-10-29T02:05:55.971Z,43.30
2022-10-29T02:06:55.963Z,41.50
2022-10-29T02:07:55.949Z,44.30
2022-10-29T02:08:55.944Z,45.50
2022-10-29T02:09:55.928Z,44.90
2022-10-29T02:10:55.919Z,55.20
2022-10-29T02:11:55.908Z,50.70
2022-10-29T02:12:56.383Z,47.40
2022-10-29T02:13:55.900Z,42.20
2022-10-29T02:14:55.914Z,49.50
2022-10-29T02:15:55.924Z,42.50
2022-10-29T02:16:55.930Z,51.50
2022-10-29T02:17:56.320Z,47.70
2022-10-29T02:18:55.970Z,41.50
2022-10-29T02:19:55.961Z,45.80
2022-10-29T02:20:55.804Z,56.90
2022-10-29T02:21:55.794Z,49.60
2022-10-29T02:22:55.781Z,49.30
2022-10-29T02:23:55.768Z,49.10
2022-10-29T02:24:55.762Z,46.30
2022-10-29T02:25:55.821Z,51.40
2022-10-29T02:26:55.736Z,46.10
2022-10-29T02:27:56.131Z,41.00
2022-10-29T02:28:55.717Z,54.60
2022-10-29T02:29:55.703Z,45.30
2022-10-29T02:30:55.719Z,47.80
2022-10-29T02:31:55.682Z,55.40
2022-10-29T02:32:55.918Z,56.70
2022-10-29T02:33:55.661Z,54.20
2022-10-29T02:34:55.649Z,47.70
2022-10-29T02:35:55.636Z,47.00
2022-10-29T02:36:55.627Z,53.60
2022-10-29T02:37:55.616Z,54.20
2022-10-29T02:38:55.613Z,50.40
2022-10-29T02:39:55.594Z,50.60
2022-10-29T02:40:55.584Z,49.00
2022-10-29T02:41:55.576Z,45.40
2022-10-29T02:42:55.905Z,50.10
2022-10-29T02:43:55.550Z,51.20
2022-10-29T02:44:55.539Z,40.00
2022-10-29T02:45:55.529Z,49.10
2022-10-29T02:46:55.544Z,45.90
2022-10-29T02:47:55.887Z,52.80
2022-10-29T02:48:55.497Z,38.90
2022-10-29T02:49:55.485Z,50.30
2022-10-29T02:50:55.475Z,47.20
2022-10-29T02:51:55.461Z,38.90
2022-10-29T02:52:55.453Z,50.30
2022-10-29T02:53:55.439Z,63.30
2022-10-29T02:54:55.432Z,50.40
2022-10-29T02:55:55.418Z,50.00
2022-10-29T02:56:55.409Z,45.20
2022-10-29T02:57:55.643Z,57.80
2022-10-29T02:58:55.392Z,53.90
2022-10-29T02:59:55.374Z,49.50
2022-10-29T03:00:55.368Z,41.70
2022-10-29T03:01:55.480Z,45.00
2022-10-29T03:02:55.835Z,45.00
2022-10-29T03:03:55.331Z,53.00
2022-10-29T03:04:55.319Z,51.60
2022-10-29T03:05:55.311Z,45.00
2022-10-29T03:06:55.301Z,40.30
2022-10-29T03:07:55.286Z,48.10
2022-10-29T03:08:55.277Z,38.00
2022-10-29T03:09:55.263Z,39.60
2022-10-29T03:10:55.252Z,43.40
2022-10-29T03:11:55.240Z,40.70
2022-10-29T03:12:55.617Z,37.50
2022-10-29T03:13:55.218Z,45.40
2022-10-29T03:14:55.209Z,48.30
2022-10-29T03:15:55.195Z,53.70
2022-10-29T03:16:55.185Z,66.90
2022-10-29T03:17:55.585Z,47.10
2022-10-29T03:18:55.194Z,56.80
2022-10-29T03:19:55.153Z,47.80
2022-10-29T03:20:55.139Z,49.40
2022-10-29T03:21:55.138Z,57.00
2022-10-29T03:22:55.117Z,38.50
2022-10-29T03:23:55.116Z,65.00
2022-10-29T03:24:55.098Z,77.00
2022-10-29T03:25:56.097Z,57.10
2022-10-29T03:26:55.074Z,71.30
2022-10-29T03:27:55.436Z,55.30
2022-10-29T03:28:55.053Z,54.50
2022-10-29T03:29:55.039Z,50.00
2022-10-29T03:30:55.055Z,31.30
2022-10-29T03:31:55.016Z,46.00
2022-10-29T03:32:55.434Z,69.60
2022-10-29T03:33:54.997Z,37.00
2022-10-29T03:34:57.567Z,50.30
2022-10-29T03:35:55.054Z,38.60
2022-10-29T03:36:54.959Z,38.50
2022-10-29T03:37:54.946Z,34.40
2022-10-29T03:38:54.951Z,41.70
2022-10-29T03:39:54.929Z,35.40
2022-10-29T03:40:54.914Z,35.80
2022-10-29T03:41:54.900Z,30.90
2022-10-29T03:42:55.210Z,31.40
2022-10-29T03:44:54.870Z,39.40
2022-10-29T03:45:54.856Z,32.20
2022-10-29T03:46:54.853Z,33.10
2022-10-29T03:47:55.198Z,38.70
2022-10-29T03:48:54.825Z,32.40
2022-10-29T03:49:54.812Z,51.20
2022-10-29T03:50:54.825Z,36.60
2022-10-29T03:51:54.787Z,45.10
2022-10-29T03:52:54.779Z,41.20
2022-10-29T03:53:54.767Z,36.60
2022-10-29T03:54:54.757Z,37.10
2022-10-29T03:55:54.744Z,37.10
2022-10-29T03:56:54.734Z,33.30
2022-10-29T03:57:55.042Z,23.10
2022-10-29T03:58:54.718Z,38.60
2022-10-29T03:59:54.708Z,59.70
2022-10-29T04:00:54.689Z,41.90
2022-10-29T04:01:54.843Z,44.80
2022-10-29T04:02:55.180Z,56.00
2022-10-29T04:03:54.656Z,67.90
2022-10-29T04:04:54.644Z,60.30
2022-10-29T04:05:54.632Z,64.00
2022-10-29T04:06:54.649Z,44.40
2022-10-29T04:07:54.613Z,58.90
2022-10-29T04:08:54.597Z,83.40
2022-10-29T04:09:54.588Z,62.10
2022-10-29T04:10:54.577Z,50.70
2022-10-29T04:11:54.566Z,57.70
2022-10-29T04:12:54.979Z,37.60
2022-10-29T04:13:54.543Z,32.70
2022-10-29T04:14:54.533Z,33.90
2022-10-29T04:15:54.522Z,37.00
2022-10-29T04:16:54.507Z,37.20
2022-10-29T04:17:54.989Z,39.00
2022-10-29T04:18:54.487Z,33.30
2022-10-29T04:19:54.476Z,48.80
2022-10-29T04:26:42.058Z,55.60
2022-10-29T04:28:54.372Z,41.10
2022-10-29T04:29:54.367Z,47.40
2022-10-29T04:30:54.356Z,54.20
2022-10-29T04:31:54.341Z,36.50
2022-10-29T04:32:54.688Z,36.10
2022-10-29T04:33:54.315Z,39.50
2022-10-29T04:34:54.306Z,65.50
2022-10-29T04:35:54.295Z,51.80
2022-10-29T04:36:54.282Z,46.70
2022-10-29T04:37:54.271Z,43.00
2022-10-29T04:38:54.282Z,33.60
2022-10-29T04:39:54.248Z,37.80
2022-10-29T04:40:54.237Z,63.60
2022-10-29T04:41:54.227Z,42.70
2022-10-29T04:42:54.516Z,28.30
2022-10-29T04:43:54.203Z,41.70
2022-10-29T04:44:54.190Z,50.40
2022-10-29T04:45:54.190Z,56.70
2022-10-29T04:46:54.173Z,49.20
2022-10-29T04:47:54.621Z,41.80
2022-10-29T04:48:54.198Z,44.40
2022-10-29T04:49:54.135Z,26.10
2022-10-29T04:50:54.124Z,36.30
2022-10-29T04:51:54.112Z,32.10
2022-10-29T04:52:54.100Z,43.00
2022-10-29T04:53:54.092Z,37.90
2022-10-29T04:54:54.103Z,34.90
2022-10-29T04:55:54.068Z,41.50
2022-10-29T04:56:54.054Z,32.40
2022-10-29T04:57:54.425Z,30.80
2022-10-29T04:58:54.182Z,31.10
2022-10-29T04:59:54.024Z,44.30
2022-10-29T05:00:54.116Z,82.00
2022-10-29T05:01:53.999Z,61.80
2022-10-29T05:02:54.278Z,55.10
2022-10-29T05:03:57.147Z,38.20
2022-10-29T05:04:53.964Z,31.40
2022-10-29T05:05:53.955Z,43.20
2022-10-29T05:07:21.437Z,61.20
2022-10-29T05:08:21.424Z,60.20
2022-10-29T05:09:21.461Z,37.00
2022-10-29T05:10:21.427Z,38.40
2022-10-29T05:11:21.395Z,77.40
2022-10-29T05:12:21.377Z,80.10
2022-10-29T05:13:21.369Z,62.80
2022-10-29T05:14:21.358Z,125.80
2022-10-29T05:15:21.346Z,50.90
2022-10-29T05:16:21.332Z,43.30
2022-10-29T05:17:21.323Z,40.60
2022-10-29T05:18:21.334Z,40.20
2022-10-29T05:19:21.299Z,36.90
2022-10-29T05:20:21.289Z,31.80
2022-10-29T05:21:21.279Z,36.90
2022-10-29T05:22:21.266Z,36.60
2022-10-29T05:23:21.259Z,48.20
2022-10-29T05:24:21.245Z,38.50
2022-10-29T05:25:21.234Z,50.00
2022-10-29T05:26:21.245Z,66.50
2022-10-29T05:27:21.211Z,31.60
2022-10-29T05:28:21.218Z,50.20
2022-10-29T05:29:21.190Z,39.10
2022-10-29T05:30:21.176Z,33.30
2022-10-29T05:31:21.168Z,34.10
2022-10-29T05:32:21.153Z,48.20
2022-10-29T05:33:21.147Z,47.00
2022-10-29T05:34:21.133Z,42.80
2022-10-29T05:35:21.126Z,36.80
2022-10-29T05:36:21.110Z,61.30
2022-10-29T05:37:21.100Z,38.30
2022-10-29T05:38:21.087Z,30.50
2022-10-29T05:39:21.077Z,29.20
2022-10-29T05:40:21.067Z,35.10
2022-10-29T05:41:21.059Z,35.00
2022-10-29T05:42:21.071Z,29.30
2022-10-29T05:43:21.040Z,35.70
2022-10-29T05:44:21.021Z,38.60
2022-10-29T05:45:21.015Z,40.90
2022-10-29T05:46:20.998Z,39.90
2022-10-29T05:47:20.991Z,42.10
2022-10-29T05:48:20.975Z,38.40
2022-10-29T05:49:20.968Z,43.10
2022-10-29T05:50:20.955Z,38.10
2022-10-29T05:51:20.945Z,46.40
2022-10-29T05:52:20.939Z,61.20
2022-10-29T05:53:20.922Z,52.80
2022-10-29T05:54:20.909Z,40.40
2022-10-29T05:55:20.900Z,45.50
2022-10-29T05:56:20.888Z,43.20
2022-10-29T05:57:20.877Z,33.00
2022-10-29T05:58:20.886Z,51.70
2022-10-29T05:59:20.860Z,69.20
2022-10-29T06:00:20.842Z,66.50
2022-10-29T06:01:20.929Z,64.40
2022-10-29T06:02:20.987Z,59.60
2022-10-29T06:03:20.813Z,59.10
2022-10-29T06:04:20.798Z,52.50
2022-10-29T06:05:20.793Z,65.60
2022-10-29T06:06:20.845Z,55.30
2022-10-29T06:07:20.776Z,74.90
2022-10-29T06:08:20.756Z,52.80
2022-10-29T06:09:20.744Z,59.10
2022-10-29T06:10:20.727Z,78.70
2022-10-29T06:11:21.069Z,61.50
2022-10-29T06:12:20.707Z,79.60
2022-10-29T06:13:20.702Z,70.10
2022-10-29T06:14:20.710Z,68.30
2022-10-29T06:15:20.675Z,59.40
2022-10-29T06:16:20.663Z,140.20
2022-10-29T06:17:20.652Z,58.40
2022-10-29T06:18:20.642Z,60.30
2022-10-29T06:19:20.633Z,44.70
2022-10-29T06:20:20.627Z,48.30
2022-10-29T06:21:20.611Z,52.80
2022-10-29T06:22:20.599Z,52.60
2022-10-29T06:23:20.587Z,49.60
2022-10-29T06:24:20.574Z,40.70
2022-10-29T06:25:20.562Z,52.50
2022-10-29T06:26:20.549Z,69.90
2022-10-29T06:27:20.540Z,74.60
2022-10-29T06:28:20.528Z,94.30
2022-10-29T06:29:20.529Z,100.20
2022-10-29T06:30:20.530Z,62.20
2022-10-29T06:31:20.498Z,68.80
2022-10-29T06:32:20.482Z,79.50
2022-10-29T06:33:20.472Z,55.30
2022-10-29T06:34:20.460Z,60.70
2022-10-29T06:35:20.529Z,61.20
2022-10-29T06:36:20.440Z,57.10
2022-10-29T06:37:20.430Z,61.90
2022-10-29T06:38:20.416Z,58.50
2022-10-29T06:39:20.415Z,53.20
2022-10-29T06:40:20.395Z,49.00
2022-10-29T06:41:20.385Z,67.80
2022-10-29T06:42:20.372Z,64.00
2022-10-29T06:43:20.359Z,64.20
2022-10-29T06:44:20.348Z,73.30
2022-10-29T06:45:20.339Z,88.90
2022-10-29T06:46:20.349Z,72.30
2022-10-29T06:47:20.319Z,51.40
2022-10-29T06:48:22.308Z,73.80
2022-10-29T06:49:20.292Z,87.50
2022-10-29T06:50:20.284Z,60.80
2022-10-29T06:51:20.309Z,63.40
2022-10-29T06:52:20.258Z,48.60
2022-10-29T06:53:20.248Z,48.30
2022-10-29T06:54:20.235Z,48.80
2022-10-29T06:55:20.226Z,45.10
2022-10-29T06:56:20.214Z,57.60
2022-10-29T06:57:20.204Z,50.60
2022-10-29T06:58:20.192Z,46.30
2022-10-29T06:59:20.184Z,50.80
2022-10-29T07:00:20.173Z,81.60
2022-10-29T07:01:20.198Z,67.00
2022-10-29T07:02:20.173Z,83.90
2022-10-29T07:03:20.139Z,59.70
2022-10-29T07:04:20.127Z,107.30
2022-10-29T07:05:20.130Z,96.60
2022-10-29T07:06:20.104Z,75.30
2022-10-29T07:07:20.180Z,105.60
2022-10-29T07:08:20.083Z,208.10
2022-10-29T07:09:20.070Z,97.90
2022-10-29T07:10:20.063Z,112.60
2022-10-29T07:11:20.048Z,82.40
2022-10-29T07:12:20.046Z,99.30
2022-10-29T07:13:20.031Z,90.50
2022-10-29T07:14:20.016Z,106.50
2022-10-29T07:15:23.003Z,88.20
2022-10-29T07:16:20.258Z,215.10
2022-10-29T07:17:19.987Z,396.60
2022-10-29T07:18:19.995Z,265.80
2022-10-29T07:19:19.961Z,331.40
2022-10-29T07:20:19.951Z,191.50
2022-10-29T07:21:19.943Z,159.40
2022-10-29T07:22:19.930Z,343.20
2022-10-29T07:23:20.061Z,233.20
2022-10-29T07:24:19.907Z,211.50
2022-10-29T07:25:19.894Z,364.00
2022-10-29T07:26:19.884Z,222.80
2022-10-29T07:27:19.902Z,206.70
2022-10-29T07:28:19.863Z,152.50
2022-10-29T07:29:19.848Z,133.80
2022-10-29T07:30:19.837Z,125.60
2022-10-29T07:31:19.826Z,226.20
2022-10-29T07:32:19.819Z,508.50
2022-10-29T07:33:19.809Z,140.20
2022-10-29T07:34:19.823Z,297.90
2022-10-29T07:35:19.786Z,488.70
2022-10-29T07:36:19.780Z,125.80
2022-10-29T07:37:19.760Z,278.70
2022-10-29T07:38:19.755Z,116.70
2022-10-29T07:39:19.810Z,128.10
2022-10-29T07:40:19.727Z,118.00
2022-10-29T07:41:19.716Z,198.10
2022-10-29T07:42:19.706Z,161.60
2022-10-29T07:43:19.703Z,141.20
2022-10-29T07:44:19.687Z,144.00
2022-10-29T07:45:19.705Z,134.30
2022-10-29T07:46:19.673Z,134.60
2022-10-29T07:47:19.650Z,118.30
2022-10-29T07:48:19.644Z,98.00
2022-10-29T07:49:19.628Z,118.20
2022-10-29T07:50:19.645Z,105.60
2022-10-29T07:51:19.606Z,92.30
2022-10-29T07:52:19.615Z,94.20
2022-10-29T07:53:19.588Z,112.40
2022-10-29T07:54:19.576Z,128.20
2022-10-29T07:55:19.613Z,121.10
2022-10-29T07:56:19.579Z,106.80
2022-10-29T07:57:19.554Z,106.40
2022-10-29T07:58:19.531Z,107.90
2022-10-29T07:59:19.529Z,104.50
2022-10-29T08:00:19.559Z,99.10
2022-10-29T08:01:19.628Z,119.10
2022-10-29T08:02:19.613Z,115.40
2022-10-29T08:03:19.476Z,120.50
2022-10-29T08:04:19.464Z,94.80
2022-10-29T08:05:19.451Z,98.50
2022-10-29T08:06:19.490Z,93.90
2022-10-29T08:07:19.612Z,89.30
2022-10-29T08:08:19.583Z,86.90
2022-10-29T08:09:19.520Z,80.10
2022-10-29T08:10:19.515Z,80.20
2022-10-29T08:11:19.488Z,80.50
2022-10-29T08:12:19.411Z,74.10
2022-10-29T08:13:19.388Z,89.10
2022-10-29T08:14:22.597Z,100.00
2022-10-29T08:15:19.347Z,81.50
2022-10-29T08:16:19.339Z,73.30
2022-10-29T08:17:19.325Z,70.40
2022-10-29T08:18:19.318Z,69.80
2022-10-29T08:19:19.299Z,72.10
2022-10-29T08:20:19.303Z,79.90
2022-10-29T08:21:19.278Z,118.00
2022-10-29T08:22:19.293Z,93.10
2022-10-29T08:23:19.273Z,77.40
2022-10-29T08:24:19.546Z,73.70
2022-10-29T08:25:19.239Z,82.40
2022-10-29T08:26:19.229Z,71.10
2022-10-29T08:27:19.212Z,65.60
2022-10-29T08:28:20.870Z,63.30
2022-10-29T08:29:19.192Z,69.70
2022-10-29T08:30:19.182Z,57.80
2022-10-29T08:31:19.370Z,57.30
2022-10-29T08:32:19.240Z,54.70
2022-10-29T08:33:19.147Z,46.80
2022-10-29T08:34:19.137Z,43.50
2022-10-29T08:35:19.126Z,56.10
2022-10-29T08:36:19.115Z,45.60
2022-10-29T08:37:19.106Z,54.00
2022-10-29T08:38:19.465Z,47.00
2022-10-29T08:39:19.083Z,41.00
2022-10-29T08:40:19.076Z,49.80
2022-10-29T08:41:19.063Z,42.20
2022-10-29T08:42:19.065Z,39.50
2022-10-29T08:43:19.046Z,41.40
2022-10-29T08:44:19.029Z,42.30
2022-10-29T08:45:19.015Z,57.80
2022-10-29T08:46:19.007Z,55.20
2022-10-29T08:47:18.994Z,55.00
2022-10-29T08:48:18.984Z,64.60
2022-10-29T08:49:18.970Z,59.90
2022-10-29T08:50:18.962Z,65.10
2022-10-29T08:51:18.952Z,49.40
2022-10-29T08:52:18.944Z,48.70
2022-10-29T08:53:23.273Z,54.00
2022-10-29T08:54:31.111Z,53.00
2022-10-29T08:55:19.934Z,48.60
2022-10-29T08:56:18.897Z,45.50
2022-10-29T08:57:18.887Z,48.90
2022-10-29T08:58:18.876Z,46.00
2022-10-29T08:59:18.863Z,39.70
2022-10-29T09:00:18.857Z,44.10
2022-10-29T09:01:18.915Z,44.60
2022-10-29T09:02:18.892Z,36.10
2022-10-29T09:03:18.844Z,37.90
2022-10-29T09:04:18.808Z,35.70
2022-10-29T09:05:18.805Z,35.20
2022-10-29T09:06:18.787Z,35.90
2022-10-29T09:07:18.775Z,32.70
2022-10-29T09:08:18.765Z,38.90
2022-10-29T09:09:18.751Z,35.30
2022-10-29T09:10:18.762Z,32.70
2022-10-29T09:11:18.730Z,39.90
2022-10-29T09:12:18.726Z,37.20
2022-10-29T09:13:18.706Z,37.30
2022-10-29T09:14:18.712Z,32.10
2022-10-29T09:15:18.689Z,40.10
2022-10-29T09:16:18.678Z,31.90
2022-10-29T09:17:18.664Z,35.50
2022-10-29T09:18:18.654Z,31.50
2022-10-29T09:19:18.639Z,33.50
2022-10-29T09:20:18.637Z,31.80
2022-10-29T09:21:18.620Z,30.70
2022-10-29T09:22:18.609Z,28.90
2022-10-29T09:23:18.607Z,29.90
2022-10-29T09:24:18.617Z,29.80
2022-10-29T09:25:18.578Z,31.30
2022-10-29T09:26:18.591Z,28.60
2022-10-29T09:27:18.558Z,29.90
2022-10-29T09:28:18.544Z,31.00
2022-10-29T09:29:18.534Z,28.90
2022-10-29T09:30:18.522Z,26.80
2022-10-29T09:31:18.510Z,26.20
2022-10-29T09:32:18.505Z,28.90
2022-10-29T09:33:18.490Z,30.80
2022-10-29T09:34:18.480Z,28.60
2022-10-29T09:35:18.480Z,30.80
2022-10-29T09:36:18.461Z,25.80
2022-10-29T09:37:18.443Z,31.90
2022-10-29T09:38:18.433Z,27.20
2022-10-29T09:39:21.932Z,28.10
2022-10-29T09:40:18.417Z,27.30
2022-10-29T09:41:18.398Z,31.50
2022-10-29T09:42:18.410Z,27.70
2022-10-29T09:43:18.378Z,22.30
2022-10-29T09:44:18.367Z,26.20
2022-10-29T09:45:18.450Z,28.30
2022-10-29T09:46:18.357Z,24.90
2022-10-29T09:47:18.338Z,26.40
2022-10-29T09:48:18.325Z,24.50
2022-10-29T09:49:18.312Z,23.30
2022-10-29T09:50:18.303Z,23.50
2022-10-29T09:51:18.290Z,24.30
2022-10-29T09:52:18.281Z,26.00
2022-10-29T09:53:18.272Z,27.20
2022-10-29T09:54:18.259Z,29.00
2022-10-29T09:55:18.273Z,27.20
2022-10-29T09:56:18.269Z,26.10
2022-10-29T09:57:18.228Z,30.00
2022-10-29T09:58:18.238Z,23.50
2022-10-29T09:59:18.200Z,24.30
2022-10-29T10:00:18.190Z,25.90
2022-10-29T10:01:18.265Z,26.30
2022-10-29T10:02:18.241Z,23.80
2022-10-29T10:03:18.240Z,23.70
2022-10-29T10:04:18.147Z,24.00
2022-10-29T10:05:18.137Z,27.40
2022-10-29T10:06:18.295Z,28.80
2022-10-29T10:07:18.137Z,24.10
2022-10-29T10:08:18.104Z,28.30
2022-10-29T10:09:18.119Z,26.10
2022-10-29T10:10:18.166Z,26.00
2022-10-29T10:11:18.073Z,27.40
2022-10-29T10:12:18.061Z,30.00
2022-10-29T10:13:18.981Z,29.30
2022-10-29T10:14:18.075Z,24.50
2022-10-29T10:15:18.023Z,29.30
2022-10-29T10:16:18.060Z,28.00
2022-10-29T10:17:18.216Z,28.10
2022-10-29T10:18:18.007Z,26.20
2022-10-29T10:19:17.982Z,26.70
2022-10-29T10:20:18.019Z,24.70
2022-10-29T10:21:17.961Z,25.60
2022-10-29T10:22:17.955Z,27.90
2022-10-29T10:23:17.984Z,28.50
2022-10-29T10:24:17.929Z,27.60
2022-10-29T10:25:18.014Z,21.50
2022-10-29T10:26:17.941Z,25.80
2022-10-29T10:27:18.009Z,26.70
2022-10-29T10:28:18.099Z,28.10
2022-10-29T10:29:18.177Z,27.60
2022-10-29T10:30:17.929Z,26.80
2022-10-29T10:31:17.886Z,29.00
2022-10-29T10:32:17.843Z,25.70
2022-10-29T10:33:17.880Z,26.50
2022-10-29T10:34:17.822Z,28.60
2022-10-29T10:35:17.809Z,27.10
2022-10-29T10:36:17.800Z,28.00
2022-10-29T10:37:17.832Z,27.50
2022-10-29T10:38:18.058Z,30.90
2022-10-29T10:39:17.769Z,26.10
2022-10-29T10:40:17.757Z,27.20
2022-10-29T10:41:17.743Z,24.10
2022-10-29T10:42:17.735Z,27.50
2022-10-29T10:43:17.723Z,30.00
2022-10-29T10:44:17.716Z,26.20
2022-10-29T10:45:17.706Z,27.90
2022-10-29T10:46:17.717Z,21.90
2022-10-29T10:47:17.768Z,26.50
2022-10-29T10:48:18.091Z,25.40
2022-10-29T10:49:17.984Z,24.30
2022-10-29T10:50:17.672Z,23.00
2022-10-29T10:51:17.642Z,26.30
2022-10-29T10:52:17.625Z,29.40
2022-10-29T10:53:17.676Z,24.70
2022-10-29T10:54:17.799Z,29.90
2022-10-29T10:55:17.798Z,29.60
2022-10-29T10:56:17.723Z,27.00
2022-10-29T10:57:17.749Z,29.80
2022-10-29T10:58:17.649Z,30.50
2022-10-29T10:59:17.587Z,24.30
2022-10-29T11:00:17.582Z,24.30
2022-10-29T11:01:17.690Z,24.00
2022-10-29T11:02:17.714Z,28.80
2022-10-29T11:03:17.868Z,26.20
2022-10-29T11:04:17.504Z,25.40
2022-10-29T11:05:17.792Z,24.40
2022-10-29T11:06:17.482Z,27.20
2022-10-29T11:07:17.471Z,27.50
2022-10-29T11:08:17.488Z,30.40
2022-10-29T11:09:17.455Z,27.30
2022-10-29T11:10:17.444Z,26.10
2022-10-29T11:11:17.422Z,29.30
2022-10-29T11:12:17.413Z,27.70
2022-10-29T11:13:17.395Z,23.80
2022-10-29T11:14:17.408Z,28.50
2022-10-29T11:15:17.375Z,25.20
2022-10-29T11:16:17.368Z,27.40
2022-10-29T11:17:17.352Z,25.30
2022-10-29T11:19:17.331Z,25.20
2022-10-29T11:20:17.508Z,24.60
2022-10-29T11:21:17.310Z,25.50
2022-10-29T11:22:17.297Z,27.30
2022-10-29T11:23:17.288Z,28.00
2022-10-29T11:24:17.276Z,24.90
2022-10-29T11:25:17.363Z,24.80
2022-10-29T11:26:17.259Z,33.20
2022-10-29T11:27:17.246Z,31.90
2022-10-29T11:28:17.230Z,27.10
2022-10-29T11:29:17.224Z,25.50
2022-10-29T11:30:17.222Z,26.50
2022-10-29T11:31:17.217Z,29.50
2022-10-29T11:32:17.188Z,22.80
2022-10-29T11:33:17.221Z,28.00
2022-10-29T11:34:17.200Z,24.80
2022-10-29T11:35:17.463Z,23.80
2022-10-29T11:36:17.150Z,20.10
2022-10-29T11:37:17.139Z,23.20
2022-10-29T11:38:17.124Z,24.50
2022-10-29T11:39:17.119Z,26.40
2022-10-29T11:40:17.107Z,28.20
2022-10-29T11:41:17.097Z,25.00
2022-10-29T11:42:17.143Z,28.10
2022-10-29T11:43:17.073Z,20.80
2022-10-29T11:44:17.060Z,24.00
2022-10-29T11:45:17.055Z,23.20
2022-10-29T11:46:17.037Z,25.80
2022-10-29T11:47:17.075Z,25.70
2022-10-29T11:48:21.473Z,23.80
2022-10-29T11:49:17.012Z,23.20
2022-10-29T11:50:17.018Z,23.80
2022-10-29T11:51:16.991Z,25.70
2022-10-29T11:52:16.971Z,27.20
2022-10-29T11:53:16.967Z,27.80
2022-10-29T11:54:16.952Z,26.80
2022-10-29T11:55:16.982Z,25.10
2022-10-29T11:56:16.933Z,26.20
2022-10-29T11:57:16.922Z,25.00
2022-10-29T11:58:16.910Z,26.10
2022-10-29T11:59:16.905Z,20.20
2022-10-29T12:00:16.888Z,25.70
2022-10-29T12:01:16.938Z,24.80
2022-10-29T12:02:16.872Z,23.10
2022-10-29T12:03:16.927Z,25.40
2022-10-29T12:04:19.589Z,25.50
2022-10-29T12:05:17.864Z,25.50
2022-10-29T12:06:16.894Z,23.40
2022-10-29T12:07:16.851Z,22.00
2022-10-29T12:08:16.818Z,22.40
2022-10-29T12:09:16.790Z,24.50
2022-10-29T12:10:16.784Z,23.40
2022-10-29T12:11:16.770Z,23.40
2022-10-29T12:12:16.759Z,22.50
2022-10-29T12:13:16.747Z,23.40
2022-10-29T12:14:16.850Z,25.30
2022-10-29T12:15:16.724Z,23.60
2022-10-29T12:16:16.713Z,26.20
2022-10-29T12:17:16.704Z,24.80
2022-10-29T12:18:16.810Z,23.30
2022-10-29T12:19:16.701Z,22.90
2022-10-29T12:20:16.670Z,25.60
2022-10-29T12:21:16.666Z,17.90
2022-10-29T12:22:16.674Z,23.20
2022-10-29T12:23:16.841Z,18.80
2022-10-29T12:24:16.631Z,21.30
2022-10-29T12:25:16.621Z,21.20
2022-10-29T12:26:16.652Z,22.30
2022-10-29T12:27:16.594Z,20.20
2022-10-29T12:28:16.583Z,28.60
2022-10-29T12:29:16.583Z,19.20
2022-10-29T12:30:16.718Z,22.70
2022-10-29T12:31:16.595Z,22.00
2022-10-29T12:32:16.542Z,22.70
2022-10-29T12:33:16.541Z,20.10
2022-10-29T12:34:16.517Z,19.10
2022-10-29T12:35:16.514Z,22.20
2022-10-29T12:36:16.500Z,21.60
2022-10-29T12:37:17.182Z,19.20
2022-10-29T12:38:16.498Z,18.10
2022-10-29T12:39:16.464Z,22.20
2022-10-29T12:40:16.454Z,22.30
2022-10-29T12:41:16.461Z,24.60
2022-10-29T12:42:16.487Z,21.90
2022-10-29T12:43:16.423Z,21.70
2022-10-29T12:44:16.412Z,20.10
2022-10-29T12:45:16.402Z,21.00
2022-10-29T12:46:20.829Z,24.50
2022-10-29T12:47:16.379Z,21.90
2022-10-29T12:48:16.369Z,22.80
2022-10-29T12:49:16.354Z,20.40
2022-10-29T12:50:16.355Z,22.90
2022-10-29T12:51:16.961Z,21.90
2022-10-29T12:52:16.332Z,23.40
2022-10-29T12:53:16.401Z,27.40
2022-10-29T12:54:16.389Z,24.00
2022-10-29T12:55:16.294Z,26.20
2022-10-29T12:56:16.646Z,24.40
2022-10-29T12:57:16.271Z,19.60
2022-10-29T12:58:16.262Z,19.70
2022-10-29T12:59:16.250Z,22.50
2022-10-29T13:00:16.242Z,23.70